sensor_id;sensor_type;location;lat;lon;timestamp;P1;durP1;ratioP1;P2;durP2;ratioP2
29358;SDS011;16347;53.232;6.556;2023-08-06T00:01:04;9.55;;;5.78;;
29358;SDS011;16347;53.232;6.556;2023-08-06T00:03:33;9.13;;;6.65;;
29358;SDS011;16347;53.232;6.556;2023-08-06T00:06:01;11.52;;;5.57;;
29358;SDS011;16347;53.232;6.556;2023-08-06T00:08:29;8.57;;;5.78;;
29358;SDS011;16347;53.232;6.556;2023-08-06T00:10:57;6.88;;;4.93;;
29358;SDS011;16347;53.232;6.556;2023-08-06T00:13:26;7.53;;;4.93;;
29358;SDS011;16347;53.232;6.556;2023-08-06T00:15:55;10.63;;;5.15;;
29358;SDS011;16347;53.232;6.556;2023-08-06T00:18:23;7.35;;;4.82;;
29358;SDS011;16347;53.232;6.556;2023-08-06T00:20:52;8.70;;;5.22;;
29358;SDS011;16347;53.232;6.556;2023-08-06T00:23:20;11.60;;;5.28;;
29358;SDS011;16347;53.232;6.556;2023-08-06T00:25:48;9.27;;;5.65;;
29358;SDS011;16347;53.232;6.556;2023-08-06T00:28:16;8.30;;;5.47;;
29358;SDS011;16347;53.232;6.556;2023-08-06T00:30:44;11.57;;;5.75;;
29358;SDS011;16347;53.232;6.556;2023-08-06T00:33:13;9.10;;;5.72;;
29358;SDS011;16347;53.232;6.556;2023-08-06T00:35:41;8.93;;;4.70;;
29358;SDS011;16347;53.232;6.556;2023-08-06T00:38:09;11.05;;;5.78;;
29358;SDS011;16347;53.232;6.556;2023-08-06T00:40:37;9.13;;;5.85;;
29358;SDS011;16347;53.232;6.556;2023-08-06T00:43:05;9.07;;;5.68;;
29358;SDS011;16347;53.232;6.556;2023-08-06T00:45:33;8.70;;;5.05;;
29358;SDS011;16347;53.232;6.556;2023-08-06T00:48:03;7.88;;;5.40;;
29358;SDS011;16347;53.232;6.556;2023-08-06T00:50:34;10.38;;;4.63;;
29358;SDS011;16347;53.232;6.556;2023-08-06T00:53:02;10.80;;;5.45;;
29358;SDS011;16347;53.232;6.556;2023-08-06T00:55:30;8.10;;;5.82;;
29358;SDS011;16347;53.232;6.556;2023-08-06T00:57:58;10.50;;;5.68;;
29358;SDS011;16347;53.232;6.556;2023-08-06T01:00:28;12.25;;;7.30;;
29358;SDS011;16347;53.232;6.556;2023-08-06T01:02:57;7.38;;;4.85;;
29358;SDS011;16347;53.232;6.556;2023-08-06T01:05:26;11.43;;;5.55;;
29358;SDS011;16347;53.232;6.556;2023-08-06T01:08:00;7.15;;;5.18;;
29358;SDS011;16347;53.232;6.556;2023-08-06T01:10:46;13.13;;;5.70;;
29358;SDS011;16347;53.232;6.556;2023-08-06T01:13:23;9.57;;;5.00;;
29358;SDS011;16347;53.232;6.556;2023-08-06T01:15:58;11.85;;;5.57;;
29358;SDS011;16347;53.232;6.556;2023-08-06T01:18:27;11.13;;;5.18;;
29358;SDS011;16347;53.232;6.556;2023-08-06T01:21:01;9.50;;;5.28;;
29358;SDS011;16347;53.232;6.556;2023-08-06T01:23:29;11.20;;;5.03;;
29358;SDS011;16347;53.232;6.556;2023-08-06T01:26:00;12.25;;;5.18;;
29358;SDS011;16347;53.232;6.556;2023-08-06T01:28:37;9.85;;;5.63;;
29358;SDS011;16347;53.232;6.556;2023-08-06T01:31:10;8.05;;;5.25;;
29358;SDS011;16347;53.232;6.556;2023-08-06T01:33:49;8.38;;;5.22;;
29358;SDS011;16347;53.232;6.556;2023-08-06T01:36:19;10.10;;;5.80;;
29358;SDS011;16347;53.232;6.556;2023-08-06T01:38:48;11.05;;;5.68;;
29358;SDS011;16347;53.232;6.556;2023-08-06T01:41:18;9.07;;;5.57;;
29358;SDS011;16347;53.232;6.556;2023-08-06T01:43:46;7.78;;;5.43;;
29358;SDS011;16347;53.232;6.556;2023-08-06T01:46:14;7.82;;;5.20;;
29358;SDS011;16347;53.232;6.556;2023-08-06T01:48:43;8.65;;;6.45;;
29358;SDS011;16347;53.232;6.556;2023-08-06T01:51:12;11.27;;;6.80;;
29358;SDS011;16347;53.232;6.556;2023-08-06T01:53:41;8.30;;;6.10;;
29358;SDS011;16347;53.232;6.556;2023-08-06T01:56:09;8.75;;;6.80;;
29358;SDS011;16347;53.232;6.556;2023-08-06T01:58:37;10.60;;;6.35;;
29358;SDS011;16347;53.232;6.556;2023-08-06T02:01:05;8.43;;;5.80;;
29358;SDS011;16347;53.232;6.556;2023-08-06T02:03:36;12.02;;;6.68;;
29358;SDS011;16347;53.232;6.556;2023-08-06T02:06:04;13.35;;;7.40;;
29358;SDS011;16347;53.232;6.556;2023-08-06T02:08:32;12.13;;;6.63;;
29358;SDS011;16347;53.232;6.556;2023-08-06T02:11:01;11.40;;;6.65;;
29358;SDS011;16347;53.232;6.556;2023-08-06T02:13:30;8.02;;;6.50;;
29358;SDS011;16347;53.232;6.556;2023-08-06T02:15:58;8.63;;;6.90;;
29358;SDS011;16347;53.232;6.556;2023-08-06T02:18:27;13.45;;;7.25;;
29358;SDS011;16347;53.232;6.556;2023-08-06T02:20:56;10.30;;;6.80;;
29358;SDS011;16347;53.232;6.556;2023-08-06T02:23:25;15.43;;;8.05;;
29358;SDS011;16347;53.232;6.556;2023-08-06T02:25:58;12.75;;;6.50;;
29358;SDS011;16347;53.232;6.556;2023-08-06T02:28:28;11.35;;;8.25;;
29358;SDS011;16347;53.232;6.556;2023-08-06T02:30:57;12.07;;;7.65;;
29358;SDS011;16347;53.232;6.556;2023-08-06T02:33:26;10.82;;;7.15;;
29358;SDS011;16347;53.232;6.556;2023-08-06T02:36:01;10.82;;;7.68;;
29358;SDS011;16347;53.232;6.556;2023-08-06T02:38:30;12.70;;;7.63;;
29358;SDS011;16347;53.232;6.556;2023-08-06T02:40:58;14.73;;;7.97;;
29358;SDS011;16347;53.232;6.556;2023-08-06T02:43:26;11.32;;;7.75;;
29358;SDS011;16347;53.232;6.556;2023-08-06T02:45:57;12.35;;;7.72;;
29358;SDS011;16347;53.232;6.556;2023-08-06T02:48:26;17.45;;;8.63;;
29358;SDS011;16347;53.232;6.556;2023-08-06T02:50:56;12.20;;;6.68;;
29358;SDS011;16347;53.232;6.556;2023-08-06T02:55:58;16.10;;;7.75;;
29358;SDS011;16347;53.232;6.556;2023-08-06T02:58:36;13.98;;;8.35;;
29358;SDS011;16347;53.232;6.556;2023-08-06T03:01:15;10.38;;;7.00;;
29358;SDS011;16347;53.232;6.556;2023-08-06T03:03:50;13.63;;;7.72;;
29358;SDS011;16347;53.232;6.556;2023-08-06T03:06:24;11.60;;;6.90;;
29358;SDS011;16347;53.232;6.556;2023-08-06T03:08:54;12.93;;;7.22;;
29358;SDS011;16347;53.232;6.556;2023-08-06T03:11:23;9.27;;;6.32;;
29358;SDS011;16347;53.232;6.556;2023-08-06T03:13:57;10.60;;;6.82;;
29358;SDS011;16347;53.232;6.556;2023-08-06T03:16:25;14.13;;;7.88;;
29358;SDS011;16347;53.232;6.556;2023-08-06T03:18:53;11.85;;;6.95;;
29358;SDS011;16347;53.232;6.556;2023-08-06T03:21:21;11.25;;;7.55;;
29358;SDS011;16347;53.232;6.556;2023-08-06T03:23:49;11.07;;;6.28;;
29358;SDS011;16347;53.232;6.556;2023-08-06T03:26:21;10.80;;;6.43;;
29358;SDS011;16347;53.232;6.556;2023-08-06T03:28:49;12.07;;;7.40;;
29358;SDS011;16347;53.232;6.556;2023-08-06T03:31:18;8.63;;;5.80;;
29358;SDS011;16347;53.232;6.556;2023-08-06T03:33:47;11.93;;;6.63;;
29358;SDS011;16347;53.232;6.556;2023-08-06T03:36:21;8.95;;;5.75;;
29358;SDS011;16347;53.232;6.556;2023-08-06T03:38:50;10.38;;;7.65;;
29358;SDS011;16347;53.232;6.556;2023-08-06T03:41:18;10.23;;;6.20;;
29358;SDS011;16347;53.232;6.556;2023-08-06T03:43:46;10.93;;;7.13;;
29358;SDS011;16347;53.232;6.556;2023-08-06T03:46:22;14.73;;;7.22;;
29358;SDS011;16347;53.232;6.556;2023-08-06T03:48:50;11.95;;;6.50;;
29358;SDS011;16347;53.232;6.556;2023-08-06T03:51:20;8.30;;;6.13;;
29358;SDS011;16347;53.232;6.556;2023-08-06T03:53:48;13.82;;;6.78;;
29358;SDS011;16347;53.232;6.556;2023-08-06T03:56:16;12.70;;;7.30;;
29358;SDS011;16347;53.232;6.556;2023-08-06T03:58:44;10.20;;;7.57;;
29358;SDS011;16347;53.232;6.556;2023-08-06T04:01:12;10.30;;;6.88;;
29358;SDS011;16347;53.232;6.556;2023-08-06T04:03:44;11.18;;;7.32;;
29358;SDS011;16347;53.232;6.556;2023-08-06T04:06:12;11.23;;;6.75;;
29358;SDS011;16347;53.232;6.556;2023-08-06T04:08:40;9.65;;;6.88;;
29358;SDS011;16347;53.232;6.556;2023-08-06T04:11:08;12.23;;;7.88;;
29358;SDS011;16347;53.232;6.556;2023-08-06T04:13:36;10.82;;;6.72;;
29358;SDS011;16347;53.232;6.556;2023-08-06T04:16:04;8.32;;;6.85;;
29358;SDS011;16347;53.232;6.556;2023-08-06T04:18:32;10.55;;;7.22;;
29358;SDS011;16347;53.232;6.556;2023-08-06T04:21:02;10.23;;;7.00;;
29358;SDS011;16347;53.232;6.556;2023-08-06T04:23:30;8.35;;;6.53;;
29358;SDS011;16347;53.232;6.556;2023-08-06T04:26:02;10.32;;;6.75;;
29358;SDS011;16347;53.232;6.556;2023-08-06T04:28:33;9.65;;;7.45;;
29358;SDS011;16347;53.232;6.556;2023-08-06T04:31:01;12.18;;;6.07;;
29358;SDS011;16347;53.232;6.556;2023-08-06T04:33:31;12.07;;;6.93;;
29358;SDS011;16347;53.232;6.556;2023-08-06T04:36:06;8.02;;;5.78;;
29358;SDS011;16347;53.232;6.556;2023-08-06T04:38:35;12.82;;;7.32;;
29358;SDS011;16347;53.232;6.556;2023-08-06T04:41:04;8.48;;;6.00;;
29358;SDS011;16347;53.232;6.556;2023-08-06T04:43:34;10.30;;;6.43;;
29358;SDS011;16347;53.232;6.556;2023-08-06T04:46:01;9.43;;;6.75;;
29358;SDS011;16347;53.232;6.556;2023-08-06T04:48:30;9.80;;;6.95;;
29358;SDS011;16347;53.232;6.556;2023-08-06T04:50:58;9.68;;;6.45;;
29358;SDS011;16347;53.232;6.556;2023-08-06T04:53:27;9.02;;;6.10;;
29358;SDS011;16347;53.232;6.556;2023-08-06T04:55:55;8.25;;;6.18;;
29358;SDS011;16347;53.232;6.556;2023-08-06T04:58:23;7.45;;;5.75;;
29358;SDS011;16347;53.232;6.556;2023-08-06T05:00:52;8.15;;;6.00;;
29358;SDS011;16347;53.232;6.556;2023-08-06T05:03:20;9.50;;;6.82;;
29358;SDS011;16347;53.232;6.556;2023-08-06T05:05:48;10.45;;;6.45;;
29358;SDS011;16347;53.232;6.556;2023-08-06T05:08:16;9.63;;;6.22;;
29358;SDS011;16347;53.232;6.556;2023-08-06T05:10:46;11.70;;;6.72;;
29358;SDS011;16347;53.232;6.556;2023-08-06T05:13:14;10.13;;;6.72;;
29358;SDS011;16347;53.232;6.556;2023-08-06T05:15:42;8.82;;;6.75;;
29358;SDS011;16347;53.232;6.556;2023-08-06T05:18:11;11.70;;;6.88;;
29358;SDS011;16347;53.232;6.556;2023-08-06T05:20:40;7.43;;;5.57;;
29358;SDS011;16347;53.232;6.556;2023-08-06T05:23:08;13.82;;;6.57;;
29358;SDS011;16347;53.232;6.556;2023-08-06T05:25:37;10.13;;;7.05;;
29358;SDS011;16347;53.232;6.556;2023-08-06T05:28:07;9.23;;;6.40;;
29358;SDS011;16347;53.232;6.556;2023-08-06T05:30:38;7.75;;;6.15;;
29358;SDS011;16347;53.232;6.556;2023-08-06T05:33:06;17.38;;;7.40;;
29358;SDS011;16347;53.232;6.556;2023-08-06T05:35:34;13.27;;;7.32;;
29358;SDS011;16347;53.232;6.556;2023-08-06T05:38:02;6.20;;;4.15;;
29358;SDS011;16347;53.232;6.556;2023-08-06T05:40:30;6.70;;;4.40;;
29358;SDS011;16347;53.232;6.556;2023-08-06T05:43:00;8.07;;;4.88;;
29358;SDS011;16347;53.232;6.556;2023-08-06T05:45:30;7.85;;;5.50;;
29358;SDS011;16347;53.232;6.556;2023-08-06T05:47:58;6.13;;;4.57;;
29358;SDS011;16347;53.232;6.556;2023-08-06T05:50:27;9.40;;;4.82;;
29358;SDS011;16347;53.232;6.556;2023-08-06T05:52:56;12.27;;;5.40;;
29358;SDS011;16347;53.232;6.556;2023-08-06T05:55:27;8.15;;;4.60;;
29358;SDS011;16347;53.232;6.556;2023-08-06T05:57:56;7.10;;;4.47;;
29358;SDS011;16347;53.232;6.556;2023-08-06T06:00:24;11.35;;;5.93;;
29358;SDS011;16347;53.232;6.556;2023-08-06T06:02:54;7.60;;;5.05;;
29358;SDS011;16347;53.232;6.556;2023-08-06T06:05:22;6.25;;;4.35;;
29358;SDS011;16347;53.232;6.556;2023-08-06T06:07:50;8.05;;;5.20;;
29358;SDS011;16347;53.232;6.556;2023-08-06T06:10:18;5.47;;;4.03;;
29358;SDS011;16347;53.232;6.556;2023-08-06T06:12:46;9.85;;;6.38;;
29358;SDS011;16347;53.232;6.556;2023-08-06T06:15:13;6.65;;;5.25;;
29358;SDS011;16347;53.232;6.556;2023-08-06T06:17:41;6.00;;;4.82;;
29358;SDS011;16347;53.232;6.556;2023-08-06T06:20:11;6.57;;;4.35;;
29358;SDS011;16347;53.232;6.556;2023-08-06T06:22:39;8.07;;;4.38;;
29358;SDS011;16347;53.232;6.556;2023-08-06T06:25:07;6.07;;;4.32;;
29358;SDS011;16347;53.232;6.556;2023-08-06T06:27:36;6.03;;;4.65;;
29358;SDS011;16347;53.232;6.556;2023-08-06T06:30:04;6.72;;;5.63;;
29358;SDS011;16347;53.232;6.556;2023-08-06T06:32:33;7.20;;;4.88;;
29358;SDS011;16347;53.232;6.556;2023-08-06T06:35:01;6.43;;;4.45;;
29358;SDS011;16347;53.232;6.556;2023-08-06T06:37:31;11.70;;;5.30;;
29358;SDS011;16347;53.232;6.556;2023-08-06T06:40:00;5.80;;;4.30;;
29358;SDS011;16347;53.232;6.556;2023-08-06T06:42:28;5.65;;;3.90;;
29358;SDS011;16347;53.232;6.556;2023-08-06T06:44:59;7.85;;;4.25;;
29358;SDS011;16347;53.232;6.556;2023-08-06T06:47:27;6.32;;;4.32;;
29358;SDS011;16347;53.232;6.556;2023-08-06T06:49:56;4.70;;;3.92;;
29358;SDS011;16347;53.232;6.556;2023-08-06T06:52:24;7.18;;;4.60;;
29358;SDS011;16347;53.232;6.556;2023-08-06T06:54:53;9.30;;;4.45;;
29358;SDS011;16347;53.232;6.556;2023-08-06T06:57:21;6.45;;;4.43;;
29358;SDS011;16347;53.232;6.556;2023-08-06T06:59:49;6.55;;;3.60;;
29358;SDS011;16347;53.232;6.556;2023-08-06T07:02:17;8.23;;;4.90;;
29358;SDS011;16347;53.232;6.556;2023-08-06T07:04:45;4.30;;;3.75;;
29358;SDS011;16347;53.232;6.556;2023-08-06T07:07:13;3.80;;;3.38;;
29358;SDS011;16347;53.232;6.556;2023-08-06T07:09:41;5.47;;;3.75;;
29358;SDS011;16347;53.232;6.556;2023-08-06T07:12:10;4.10;;;3.22;;
29358;SDS011;16347;53.232;6.556;2023-08-06T07:14:38;3.90;;;3.15;;
29358;SDS011;16347;53.232;6.556;2023-08-06T07:17:06;3.47;;;3.10;;
29358;SDS011;16347;53.232;6.556;2023-08-06T07:19:34;7.55;;;3.55;;
29358;SDS011;16347;53.232;6.556;2023-08-06T07:22:02;4.38;;;3.50;;
29358;SDS011;16347;53.232;6.556;2023-08-06T07:24:30;4.45;;;3.38;;
29358;SDS011;16347;53.232;6.556;2023-08-06T07:26:58;5.10;;;3.70;;
29358;SDS011;16347;53.232;6.556;2023-08-06T07:29:29;4.72;;;3.63;;
29358;SDS011;16347;53.232;6.556;2023-08-06T07:31:57;7.97;;;4.90;;
29358;SDS011;16347;53.232;6.556;2023-08-06T07:34:25;8.63;;;4.00;;
29358;SDS011;16347;53.232;6.556;2023-08-06T07:36:52;6.40;;;4.22;;
29358;SDS011;16347;53.232;6.556;2023-08-06T07:39:20;7.00;;;5.03;;
29358;SDS011;16347;53.232;6.556;2023-08-06T07:41:49;5.55;;;4.40;;
29358;SDS011;16347;53.232;6.556;2023-08-06T07:44:17;7.15;;;4.40;;
29358;SDS011;16347;53.232;6.556;2023-08-06T07:46:46;7.50;;;4.32;;
29358;SDS011;16347;53.232;6.556;2023-08-06T07:49:15;6.40;;;3.90;;
29358;SDS011;16347;53.232;6.556;2023-08-06T07:51:43;5.50;;;4.20;;
29358;SDS011;16347;53.232;6.556;2023-08-06T07:54:11;4.70;;;4.20;;
29358;SDS011;16347;53.232;6.556;2023-08-06T07:56:39;5.03;;;3.60;;
29358;SDS011;16347;53.232;6.556;2023-08-06T07:59:06;8.15;;;4.63;;
29358;SDS011;16347;53.232;6.556;2023-08-06T08:01:36;10.73;;;4.38;;
29358;SDS011;16347;53.232;6.556;2023-08-06T08:04:06;4.45;;;3.60;;
29358;SDS011;16347;53.232;6.556;2023-08-06T08:06:34;9.25;;;3.50;;
29358;SDS011;16347;53.232;6.556;2023-08-06T08:09:01;4.80;;;3.47;;
29358;SDS011;16347;53.232;6.556;2023-08-06T08:11:30;4.93;;;3.33;;
29358;SDS011;16347;53.232;6.556;2023-08-06T08:13:58;6.00;;;3.85;;
29358;SDS011;16347;53.232;6.556;2023-08-06T08:16:26;7.30;;;3.90;;
29358;SDS011;16347;53.232;6.556;2023-08-06T08:18:54;7.32;;;4.10;;
29358;SDS011;16347;53.232;6.556;2023-08-06T08:21:23;8.55;;;4.90;;
29358;SDS011;16347;53.232;6.556;2023-08-06T08:23:51;9.45;;;4.70;;
29358;SDS011;16347;53.232;6.556;2023-08-06T08:26:19;4.97;;;4.28;;
29358;SDS011;16347;53.232;6.556;2023-08-06T08:28:47;11.13;;;5.93;;
29358;SDS011;16347;53.232;6.556;2023-08-06T08:31:16;8.27;;;5.82;;
29358;SDS011;16347;53.232;6.556;2023-08-06T08:33:44;13.40;;;8.07;;
29358;SDS011;16347;53.232;6.556;2023-08-06T08:36:11;5.13;;;3.75;;
29358;SDS011;16347;53.232;6.556;2023-08-06T08:38:41;12.77;;;4.90;;
29358;SDS011;16347;53.232;6.556;2023-08-06T08:41:09;10.20;;;7.13;;
29358;SDS011;16347;53.232;6.556;2023-08-06T08:43:38;13.02;;;6.20;;
29358;SDS011;16347;53.232;6.556;2023-08-06T08:46:09;9.57;;;4.13;;
29358;SDS011;16347;53.232;6.556;2023-08-06T08:48:39;6.85;;;3.97;;
29358;SDS011;16347;53.232;6.556;2023-08-06T08:51:07;6.28;;;3.65;;
29358;SDS011;16347;53.232;6.556;2023-08-06T08:53:36;10.02;;;4.03;;
29358;SDS011;16347;53.232;6.556;2023-08-06T08:56:07;11.75;;;3.92;;
29358;SDS011;16347;53.232;6.556;2023-08-06T08:58:38;7.95;;;4.38;;
29358;SDS011;16347;53.232;6.556;2023-08-06T09:01:07;7.18;;;5.00;;
29358;SDS011;16347;53.232;6.556;2023-08-06T09:03:36;5.15;;;3.50;;
29358;SDS011;16347;53.232;6.556;2023-08-06T09:06:04;5.82;;;3.42;;
29358;SDS011;16347;53.232;6.556;2023-08-06T09:08:34;8.15;;;3.10;;
29358;SDS011;16347;53.232;6.556;2023-08-06T09:11:04;15.07;;;3.35;;
29358;SDS011;16347;53.232;6.556;2023-08-06T09:13:36;8.27;;;2.85;;
29358;SDS011;16347;53.232;6.556;2023-08-06T09:16:05;8.05;;;4.07;;
29358;SDS011;16347;53.232;6.556;2023-08-06T09:18:33;5.07;;;2.45;;
29358;SDS011;16347;53.232;6.556;2023-08-06T09:21:01;7.75;;;4.10;;
29358;SDS011;16347;53.232;6.556;2023-08-06T09:23:30;9.20;;;3.00;;
29358;SDS011;16347;53.232;6.556;2023-08-06T09:26:00;5.57;;;2.60;;
29358;SDS011;16347;53.232;6.556;2023-08-06T09:28:37;6.63;;;2.95;;
29358;SDS011;16347;53.232;6.556;2023-08-06T09:31:08;5.88;;;3.25;;
29358;SDS011;16347;53.232;6.556;2023-08-06T09:33:38;5.15;;;3.05;;
29358;SDS011;16347;53.232;6.556;2023-08-06T09:36:09;5.85;;;2.97;;
29358;SDS011;16347;53.232;6.556;2023-08-06T09:38:38;5.47;;;2.83;;
29358;SDS011;16347;53.232;6.556;2023-08-06T09:41:07;6.10;;;2.88;;
29358;SDS011;16347;53.232;6.556;2023-08-06T09:43:42;6.93;;;4.38;;
29358;SDS011;16347;53.232;6.556;2023-08-06T09:46:11;5.20;;;2.80;;
29358;SDS011;16347;53.232;6.556;2023-08-06T09:48:40;4.18;;;2.60;;
29358;SDS011;16347;53.232;6.556;2023-08-06T09:51:08;7.53;;;3.67;;
29358;SDS011;16347;53.232;6.556;2023-08-06T09:53:37;4.20;;;2.50;;
29358;SDS011;16347;53.232;6.556;2023-08-06T09:56:07;5.50;;;2.22;;
29358;SDS011;16347;53.232;6.556;2023-08-06T09:58:37;2.42;;;1.98;;
29358;SDS011;16347;53.232;6.556;2023-08-06T10:01:08;3.15;;;1.90;;
29358;SDS011;16347;53.232;6.556;2023-08-06T10:03:36;3.63;;;2.30;;
29358;SDS011;16347;53.232;6.556;2023-08-06T10:06:04;5.22;;;2.53;;
29358;SDS011;16347;53.232;6.556;2023-08-06T10:08:35;4.10;;;2.40;;
29358;SDS011;16347;53.232;6.556;2023-08-06T10:11:03;4.35;;;2.50;;
29358;SDS011;16347;53.232;6.556;2023-08-06T10:13:32;4.78;;;2.00;;
29358;SDS011;16347;53.232;6.556;2023-08-06T10:16:01;3.90;;;2.35;;
29358;SDS011;16347;53.232;6.556;2023-08-06T10:18:33;4.93;;;2.35;;
29358;SDS011;16347;53.232;6.556;2023-08-06T10:21:07;3.63;;;2.47;;
29358;SDS011;16347;53.232;6.556;2023-08-06T10:23:36;5.80;;;2.47;;
29358;SDS011;16347;53.232;6.556;2023-08-06T10:26:07;5.05;;;2.90;;
29358;SDS011;16347;53.232;6.556;2023-08-06T10:28:36;4.07;;;2.60;;
29358;SDS011;16347;53.232;6.556;2023-08-06T10:31:04;4.47;;;2.63;;
29358;SDS011;16347;53.232;6.556;2023-08-06T10:33:42;2.78;;;2.00;;
29358;SDS011;16347;53.232;6.556;2023-08-06T10:36:11;4.10;;;2.63;;
29358;SDS011;16347;53.232;6.556;2023-08-06T10:38:46;4.40;;;2.22;;
29358;SDS011;16347;53.232;6.556;2023-08-06T10:41:15;3.80;;;2.20;;
29358;SDS011;16347;53.232;6.556;2023-08-06T10:43:46;3.00;;;2.10;;
29358;SDS011;16347;53.232;6.556;2023-08-06T10:46:22;2.70;;;2.15;;
29358;SDS011;16347;53.232;6.556;2023-08-06T10:48:52;2.78;;;1.77;;
29358;SDS011;16347;53.232;6.556;2023-08-06T10:51:20;3.35;;;2.10;;
29358;SDS011;16347;53.232;6.556;2023-08-06T10:53:49;6.47;;;2.20;;
29358;SDS011;16347;53.232;6.556;2023-08-06T10:56:18;4.75;;;2.30;;
29358;SDS011;16347;53.232;6.556;2023-08-06T10:58:49;6.13;;;2.30;;
29358;SDS011;16347;53.232;6.556;2023-08-06T11:01:19;3.63;;;2.38;;
29358;SDS011;16347;53.232;6.556;2023-08-06T11:03:49;4.18;;;1.83;;
29358;SDS011;16347;53.232;6.556;2023-08-06T11:06:21;4.80;;;2.00;;
29358;SDS011;16347;53.232;6.556;2023-08-06T11:08:51;7.30;;;3.47;;
29358;SDS011;16347;53.232;6.556;2023-08-06T11:11:21;4.43;;;2.63;;
29358;SDS011;16347;53.232;6.556;2023-08-06T11:13:50;3.95;;;2.38;;
29358;SDS011;16347;53.232;6.556;2023-08-06T11:16:20;5.18;;;2.63;;
29358;SDS011;16347;53.232;6.556;2023-08-06T11:18:49;6.55;;;2.70;;
29358;SDS011;16347;53.232;6.556;2023-08-06T11:21:20;4.65;;;2.40;;
29358;SDS011;16347;53.232;6.556;2023-08-06T11:23:50;5.03;;;1.80;;
29358;SDS011;16347;53.232;6.556;2023-08-06T11:26:19;5.45;;;2.33;;
29358;SDS011;16347;53.232;6.556;2023-08-06T11:28:47;6.15;;;2.85;;
29358;SDS011;16347;53.232;6.556;2023-08-06T11:31:18;6.85;;;3.00;;
29358;SDS011;16347;53.232;6.556;2023-08-06T11:33:47;4.90;;;3.08;;
29358;SDS011;16347;53.232;6.556;2023-08-06T11:36:15;8.27;;;4.32;;
29358;SDS011;16347;53.232;6.556;2023-08-06T11:38:44;7.93;;;4.50;;
29358;SDS011;16347;53.232;6.556;2023-08-06T11:41:12;7.43;;;4.00;;
29358;SDS011;16347;53.232;6.556;2023-08-06T11:43:40;5.50;;;3.03;;
29358;SDS011;16347;53.232;6.556;2023-08-06T11:46:08;4.63;;;2.85;;
29358;SDS011;16347;53.232;6.556;2023-08-06T11:48:50;7.43;;;3.90;;
29358;SDS011;16347;53.232;6.556;2023-08-06T11:51:18;3.15;;;2.13;;
29358;SDS011;16347;53.232;6.556;2023-08-06T11:53:51;5.85;;;3.35;;
29358;SDS011;16347;53.232;6.556;2023-08-06T11:56:21;4.78;;;2.00;;
29358;SDS011;16347;53.232;6.556;2023-08-06T11:58:49;6.43;;;3.42;;
29358;SDS011;16347;53.232;6.556;2023-08-06T12:01:18;4.07;;;2.08;;
29358;SDS011;16347;53.232;6.556;2023-08-06T12:03:46;6.97;;;2.80;;
29358;SDS011;16347;53.232;6.556;2023-08-06T12:06:14;4.70;;;2.53;;
29358;SDS011;16347;53.232;6.556;2023-08-06T12:08:42;2.42;;;1.90;;
29358;SDS011;16347;53.232;6.556;2023-08-06T12:11:11;6.05;;;2.58;;
29358;SDS011;16347;53.232;6.556;2023-08-06T12:13:40;4.38;;;2.42;;
29358;SDS011;16347;53.232;6.556;2023-08-06T12:16:08;5.40;;;2.50;;
29358;SDS011;16347;53.232;6.556;2023-08-06T12:18:36;3.88;;;2.22;;
29358;SDS011;16347;53.232;6.556;2023-08-06T12:21:04;5.18;;;1.80;;
29358;SDS011;16347;53.232;6.556;2023-08-06T12:23:32;6.60;;;2.67;;
29358;SDS011;16347;53.232;6.556;2023-08-06T12:26:00;6.47;;;2.75;;
29358;SDS011;16347;53.232;6.556;2023-08-06T12:28:29;5.22;;;2.35;;
29358;SDS011;16347;53.232;6.556;2023-08-06T12:30:58;4.90;;;2.03;;
29358;SDS011;16347;53.232;6.556;2023-08-06T12:33:26;4.03;;;2.15;;
29358;SDS011;16347;53.232;6.556;2023-08-06T12:35:54;3.03;;;2.00;;
29358;SDS011;16347;53.232;6.556;2023-08-06T12:38:23;4.00;;;2.38;;
29358;SDS011;16347;53.232;6.556;2023-08-06T12:40:51;6.38;;;3.40;;
29358;SDS011;16347;53.232;6.556;2023-08-06T12:43:19;4.07;;;2.40;;
29358;SDS011;16347;53.232;6.556;2023-08-06T12:45:49;3.85;;;2.47;;
29358;SDS011;16347;53.232;6.556;2023-08-06T12:48:18;3.70;;;2.38;;
29358;SDS011;16347;53.232;6.556;2023-08-06T12:50:46;4.10;;;1.77;;
29358;SDS011;16347;53.232;6.556;2023-08-06T12:53:15;5.28;;;2.40;;
29358;SDS011;16347;53.232;6.556;2023-08-06T12:55:43;5.88;;;2.42;;
29358;SDS011;16347;53.232;6.556;2023-08-06T12:58:11;4.05;;;2.30;;
29358;SDS011;16347;53.232;6.556;2023-08-06T13:00:40;3.63;;;1.83;;
29358;SDS011;16347;53.232;6.556;2023-08-06T13:03:13;3.92;;;1.80;;
29358;SDS011;16347;53.232;6.556;2023-08-06T13:05:41;5.85;;;1.90;;
29358;SDS011;16347;53.232;6.556;2023-08-06T13:08:09;2.35;;;1.65;;
29358;SDS011;16347;53.232;6.556;2023-08-06T13:10:37;2.30;;;1.67;;
29358;SDS011;16347;53.232;6.556;2023-08-06T13:13:05;2.35;;;1.52;;
29358;SDS011;16347;53.232;6.556;2023-08-06T13:15:33;2.97;;;1.95;;
29358;SDS011;16347;53.232;6.556;2023-08-06T13:18:01;3.55;;;2.10;;
29358;SDS011;16347;53.232;6.556;2023-08-06T13:20:31;7.03;;;2.05;;
29358;SDS011;16347;53.232;6.556;2023-08-06T13:22:59;5.38;;;2.28;;
29358;SDS011;16347;53.232;6.556;2023-08-06T13:25:28;5.18;;;2.85;;
29358;SDS011;16347;53.232;6.556;2023-08-06T13:27:56;4.13;;;2.00;;
29358;SDS011;16347;53.232;6.556;2023-08-06T13:30:24;4.40;;;2.10;;
29358;SDS011;16347;53.232;6.556;2023-08-06T13:32:52;2.80;;;1.85;;
29358;SDS011;16347;53.232;6.556;2023-08-06T13:35:22;4.80;;;2.08;;
29358;SDS011;16347;53.232;6.556;2023-08-06T13:37:51;3.40;;;2.03;;
29358;SDS011;16347;53.232;6.556;2023-08-06T13:40:20;1.90;;;1.65;;
29358;SDS011;16347;53.232;6.556;2023-08-06T13:42:48;6.10;;;1.85;;
29358;SDS011;16347;53.232;6.556;2023-08-06T13:45:16;2.33;;;1.70;;
29358;SDS011;16347;53.232;6.556;2023-08-06T13:47:44;2.92;;;1.60;;
29358;SDS011;16347;53.232;6.556;2023-08-06T13:50:12;4.13;;;1.70;;
29358;SDS011;16347;53.232;6.556;2023-08-06T13:52:40;5.57;;;1.70;;
29358;SDS011;16347;53.232;6.556;2023-08-06T13:55:09;3.05;;;1.65;;
29358;SDS011;16347;53.232;6.556;2023-08-06T13:57:37;5.13;;;1.98;;
29358;SDS011;16347;53.232;6.556;2023-08-06T14:00:05;3.03;;;2.00;;
29358;SDS011;16347;53.232;6.556;2023-08-06T14:02:40;4.43;;;1.83;;
29358;SDS011;16347;53.232;6.556;2023-08-06T14:05:10;3.83;;;1.33;;
29358;SDS011;16347;53.232;6.556;2023-08-06T14:07:38;3.13;;;1.73;;
29358;SDS011;16347;53.232;6.556;2023-08-06T14:10:11;5.57;;;1.50;;
29358;SDS011;16347;53.232;6.556;2023-08-06T14:12:39;2.20;;;1.80;;
29358;SDS011;16347;53.232;6.556;2023-08-06T14:15:08;2.15;;;1.50;;
29358;SDS011;16347;53.232;6.556;2023-08-06T14:17:36;3.28;;;1.58;;
29358;SDS011;16347;53.232;6.556;2023-08-06T14:20:05;3.55;;;1.52;;
29358;SDS011;16347;53.232;6.556;2023-08-06T14:22:35;2.00;;;1.50;;
29358;SDS011;16347;53.232;6.556;2023-08-06T14:25:04;2.13;;;1.50;;
29358;SDS011;16347;53.232;6.556;2023-08-06T14:27:34;4.10;;;2.03;;
29358;SDS011;16347;53.232;6.556;2023-08-06T14:30:02;2.25;;;1.73;;
29358;SDS011;16347;53.232;6.556;2023-08-06T14:32:30;1.80;;;1.42;;
29358;SDS011;16347;53.232;6.556;2023-08-06T14:34:58;2.72;;;1.80;;
29358;SDS011;16347;53.232;6.556;2023-08-06T14:37:26;2.95;;;1.73;;
29358;SDS011;16347;53.232;6.556;2023-08-06T14:39:54;2.00;;;1.40;;
29358;SDS011;16347;53.232;6.556;2023-08-06T14:42:22;2.83;;;1.42;;
29358;SDS011;16347;53.232;6.556;2023-08-06T14:44:51;3.30;;;1.83;;
29358;SDS011;16347;53.232;6.556;2023-08-06T14:47:19;1.98;;;1.50;;
29358;SDS011;16347;53.232;6.556;2023-08-06T14:49:48;3.35;;;1.70;;
29358;SDS011;16347;53.232;6.556;2023-08-06T14:52:17;7.65;;;1.48;;
29358;SDS011;16347;53.232;6.556;2023-08-06T14:54:45;3.03;;;1.88;;
29358;SDS011;16347;53.232;6.556;2023-08-06T14:57:13;2.03;;;1.52;;
29358;SDS011;16347;53.232;6.556;2023-08-06T14:59:41;2.85;;;1.95;;